FHU weather

Sierra Vista Municipal Libby Army Air Field
Fort Huachuca Sierra Vista, Arizona, United States

Public forecast

Using degrees Fahrenheit for public forecast. Weather courtesy of forecast.io.

Current aviation weather report (METAR) for Sierra Vista Municipal Libby Army Air Field

Retrieved 2019/10/19 19:41 UTC (0 seconds ago):

KFHU 191941Z AUTO 00000KT 10SM CLR 23/03 A3003 RMK AO2 SLP111

Aviation forecast (TAF) for Sierra Vista Municipal Libby Army Air Field

Forecast is more than 12 hours old.

Retrieved 2019-10-19 02:03 UTC (17 hours ago):

TAF KFHU 190159Z 1902/2008 24009KT 9999 SKC QNH2999INS BECMG 1908/1909 18006KT 9999 SKC QNH3000INS BECMG 1919/1920 26006KT 9999 SKC QNH2994INS TX25/1921Z TN07/1911Z LAST NO AMDS AFT 1906 NEXT 2102